createdAt,value
2018-03-28T00:00:24.022Z,33.3
2018-03-28T00:01:13.390Z,33.3
2018-03-28T00:02:04.123Z,33.3
2018-03-28T00:02:53.915Z,33.3
2018-03-28T00:03:44.050Z,33.3
2018-03-28T00:04:34.012Z,33.3
2018-03-28T00:05:22.986Z,33.3
2018-03-28T00:06:13.754Z,33.3
2018-03-28T00:07:03.677Z,33.3
2018-03-28T00:07:53.763Z,33.3
2018-03-28T00:08:44.122Z,33.3
2018-03-28T00:09:34.277Z,33.3
2018-03-28T00:10:24.325Z,33.3
2018-03-28T00:11:14.297Z,33.3
2018-03-28T00:12:04.722Z,33.3
2018-03-28T00:12:54.150Z,33.3
2018-03-28T00:13:45.562Z,33.3
2018-03-28T00:14:34.814Z,33.3
2018-03-28T00:15:24.847Z,33.3
2018-03-28T00:16:15.442Z,33.3
2018-03-28T00:17:05.505Z,33.3
2018-03-28T00:17:54.950Z,33.3
2018-03-28T00:18:45.424Z,33.3
2018-03-28T00:19:35.672Z,33.3
2018-03-28T00:20:25.081Z,33.2
2018-03-28T00:21:15.346Z,33.3
2018-03-28T00:22:04.605Z,33.3
2018-03-28T00:22:54.974Z,33.2
2018-03-28T00:23:45.446Z,33.3
2018-03-28T00:24:35.616Z,33.2
2018-03-28T00:25:26.614Z,33.3
2018-03-28T00:26:16.908Z,33.2
2018-03-28T00:27:06.688Z,33.2
2018-03-28T00:27:56.760Z,33.2
2018-03-28T00:28:46.860Z,33.2
2018-03-28T00:29:36.618Z,33.2
2018-03-28T00:30:27.000Z,33.2
2018-03-28T00:31:15.585Z,33.2
2018-03-28T00:32:05.820Z,33.2
2018-03-28T00:32:55.634Z,33.2
2018-03-28T00:33:46.133Z,33.2
2018-03-28T00:34:35.303Z,33.2
2018-03-28T00:35:26.659Z,33.2
2018-03-28T00:36:15.625Z,33.2
2018-03-28T00:37:06.292Z,33.1
2018-03-28T00:37:55.671Z,33.1
2018-03-28T00:38:46.585Z,33.1
2018-03-28T00:39:36.483Z,33.1
2018-03-28T00:40:26.503Z,33.1
2018-03-28T00:41:17.053Z,33.1
2018-03-28T00:42:06.228Z,33.1
2018-03-28T00:42:56.544Z,33.1
2018-03-28T00:43:46.841Z,33.1
2018-03-28T00:44:37.393Z,33.1
2018-03-28T00:45:27.420Z,33.1
2018-03-28T00:46:16.283Z,33.1
2018-03-28T00:47:06.796Z,33.2
2018-03-28T00:47:57.065Z,33.2
2018-03-28T00:48:46.705Z,33.2
2018-03-28T00:49:36.769Z,33.3
2018-03-28T00:50:27.199Z,33.3
2018-03-28T00:51:17.541Z,33.3
2018-03-28T00:52:07.737Z,33.3
2018-03-28T00:52:57.759Z,33.3
2018-03-28T00:53:47.842Z,33.3
2018-03-28T00:54:38.112Z,33.4
2018-03-28T00:55:28.713Z,33.4
2018-03-28T00:56:16.998Z,33.4
2018-03-28T00:57:08.554Z,33.4
2018-03-28T00:57:57.970Z,33.4
2018-03-28T00:58:48.612Z,33.4
2018-03-28T00:59:38.218Z,33.4
2018-03-28T01:00:27.802Z,33.3
2018-03-28T01:01:17.957Z,33.3
2018-03-28T01:02:07.933Z,33.3
2018-03-28T01:02:58.451Z,33.3
2018-03-28T01:03:47.927Z,33.3
2018-03-28T01:04:38.009Z,33.3
2018-03-28T01:05:28.649Z,33.2
2018-03-28T01:06:18.809Z,33.2
2018-03-28T01:07:09.236Z,33.2
2018-03-28T01:07:58.296Z,33.2
2018-03-28T01:08:48.271Z,33.2
2018-03-28T01:09:38.719Z,33.1
2018-03-28T01:10:28.675Z,33.1
2018-03-28T01:11:18.905Z,33.1
2018-03-28T01:12:09.001Z,33.1
2018-03-28T01:12:58.581Z,33.1
2018-03-28T01:13:48.816Z,33.1
2018-03-28T01:14:38.474Z,33.1
2018-03-28T01:15:29.308Z,33.1
2018-03-28T01:16:19.003Z,33.1
2018-03-28T01:17:08.916Z,33.1
2018-03-28T01:17:58.314Z,33.1
2018-03-28T01:18:49.357Z,33.1
2018-03-28T01:19:39.122Z,33.1
2018-03-28T01:20:28.715Z,33.1
2018-03-28T01:21:19.051Z,33
2018-03-28T01:22:09.125Z,33
2018-03-28T01:22:59.573Z,33
2018-03-28T01:23:50.210Z,33
2018-03-28T01:24:39.572Z,33
2018-03-28T01:25:29.452Z,33
2018-03-28T01:26:19.887Z,33
2018-03-28T01:27:09.233Z,33
2018-03-28T01:27:59.575Z,33
2018-03-28T01:28:49.950Z,33
2018-03-28T01:29:40.520Z,33
2018-03-28T01:30:29.808Z,33
2018-03-28T01:31:20.635Z,33
2018-03-28T01:32:10.715Z,33
2018-03-28T01:33:00.290Z,33
2018-03-28T01:33:50.800Z,32.9
2018-03-28T01:34:40.000Z,33
2018-03-28T01:35:30.821Z,32.9
2018-03-28T01:36:20.509Z,33
2018-03-28T01:37:10.257Z,33
2018-03-28T01:38:00.775Z,32.9
2018-03-28T01:38:50.772Z,32.9
2018-03-28T01:39:40.737Z,32.9
2018-03-28T01:40:30.279Z,32.9
2018-03-28T01:41:20.723Z,32.9
2018-03-28T01:42:10.627Z,32.9
2018-03-28T01:43:00.372Z,32.9
2018-03-28T01:43:51.137Z,32.9
2018-03-28T01:44:41.581Z,32.9
2018-03-28T01:45:31.434Z,32.9
2018-03-28T01:46:21.177Z,32.9
2018-03-28T01:47:10.662Z,32.9
2018-03-28T01:48:01.864Z,32.9
2018-03-28T01:48:50.784Z,32.9
2018-03-28T01:49:41.125Z,32.9
2018-03-28T01:50:31.381Z,32.9
2018-03-28T01:51:21.316Z,32.9
2018-03-28T01:52:12.100Z,32.9
2018-03-28T01:53:01.609Z,32.9
2018-03-28T01:53:51.490Z,32.9
2018-03-28T01:54:42.531Z,32.8
2018-03-28T01:55:31.518Z,32.8
2018-03-28T01:56:21.280Z,32.8
2018-03-28T01:57:12.121Z,32.8
2018-03-28T01:58:01.188Z,32.8
2018-03-28T01:58:51.754Z,32.8
2018-03-28T01:59:41.521Z,32.8
2018-03-28T02:00:32.758Z,32.8
2018-03-28T02:01:22.110Z,32.9
2018-03-28T02:02:12.098Z,32.9
2018-03-28T02:03:02.959Z,32.9
2018-03-28T02:03:53.483Z,32.9
2018-03-28T02:04:41.747Z,33
2018-03-28T02:05:32.318Z,33
2018-03-28T02:06:22.798Z,33.1
2018-03-28T02:07:11.757Z,33.1
2018-03-28T02:08:03.358Z,33.2
2018-03-28T02:08:52.947Z,33.3
2018-03-28T02:09:43.104Z,33.3
2018-03-28T02:10:32.574Z,33.4
2018-03-28T02:11:22.818Z,33.4
2018-03-28T02:12:12.121Z,33.5
2018-03-28T02:13:02.442Z,33.6
2018-03-28T02:13:53.518Z,33.7
2018-03-28T02:14:43.733Z,33.8
2018-03-28T02:15:33.164Z,33.9
2018-03-28T02:16:22.984Z,33.9
2018-03-28T02:17:13.579Z,34
2018-03-28T02:18:03.961Z,34.1
2018-03-28T02:18:52.723Z,34.2
2018-03-28T02:19:43.024Z,34.3
2018-03-28T02:20:33.275Z,34.4
2018-03-28T02:21:23.309Z,34.4
2018-03-28T02:22:14.175Z,34.6
2018-03-28T02:23:04.799Z,34.7
2018-03-28T02:23:53.916Z,34.8
2018-03-28T02:24:43.349Z,34.8
2018-03-28T02:25:34.182Z,34.9
2018-03-28T02:26:24.162Z,35.1
2018-03-28T02:27:14.173Z,35.2
2018-03-28T02:28:03.579Z,35.3
2018-03-28T02:28:53.640Z,35.4
2018-03-28T02:29:43.614Z,35.5
2018-03-28T02:30:35.084Z,35.6
2018-03-28T02:31:24.632Z,35.7
2018-03-28T02:32:14.176Z,35.8
2018-03-28T02:33:05.249Z,35.9
2018-03-28T02:33:54.706Z,36
2018-03-28T02:34:44.181Z,36.1
2018-03-28T02:35:34.414Z,36.2
2018-03-28T02:36:25.410Z,36.3
2018-03-28T02:37:14.641Z,36.4
2018-03-28T02:38:04.985Z,36.6
2018-03-28T02:38:55.375Z,36.6
2018-03-28T02:39:44.490Z,36.8
2018-03-28T02:40:34.862Z,36.9
2018-03-28T02:41:24.229Z,37
2018-03-28T02:42:15.290Z,37.1
2018-03-28T02:43:05.073Z,37.2
2018-03-28T02:43:55.493Z,37.4
2018-03-28T02:44:45.820Z,37.4
2018-03-28T02:45:34.920Z,37.6
2018-03-28T02:46:25.885Z,37.7
2018-03-28T02:47:15.256Z,37.9
2018-03-28T02:48:05.776Z,38
2018-03-28T02:48:55.571Z,38.1
2018-03-28T02:49:46.363Z,38.3
2018-03-28T02:50:35.068Z,38.4
2018-03-28T02:51:26.483Z,38.5
2018-03-28T02:52:15.850Z,38.6
2018-03-28T02:53:05.338Z,38.7
2018-03-28T02:53:56.095Z,38.9
2018-03-28T02:54:45.565Z,39
2018-03-28T02:55:35.717Z,39.1
2018-03-28T02:56:25.593Z,39.2
2018-03-28T02:57:16.511Z,39.3
2018-03-28T02:58:05.910Z,39.4
2018-03-28T02:58:56.203Z,39.6
2018-03-28T02:59:45.387Z,39.7
2018-03-28T03:00:36.992Z,39.8
2018-03-28T03:01:25.732Z,39.9
2018-03-28T03:02:16.729Z,40
2018-03-28T03:03:06.443Z,40.1
2018-03-28T03:03:56.569Z,40.2
2018-03-28T03:04:46.152Z,40.3
2018-03-28T03:05:36.785Z,40.3
2018-03-28T03:06:27.585Z,40.3
2018-03-28T03:07:17.121Z,40.4
2018-03-28T03:08:07.084Z,40.4
2018-03-28T03:08:57.413Z,40.4
2018-03-28T03:09:48.302Z,40.4
2018-03-28T03:10:38.104Z,40.5
2018-03-28T03:11:28.395Z,40.5
2018-03-28T03:12:17.894Z,40.6
2018-03-28T03:13:08.235Z,40.6
2018-03-28T03:13:58.610Z,40.6
2018-03-28T03:14:48.648Z,40.6
2018-03-28T03:15:38.464Z,40.7
2018-03-28T03:16:27.965Z,40.7
2018-03-28T03:17:18.513Z,40.8
2018-03-28T03:18:08.312Z,40.8
2018-03-28T03:18:58.344Z,40.8
2018-03-28T03:19:49.041Z,40.8
2018-03-28T03:20:39.035Z,40.9
2018-03-28T03:21:28.834Z,40.9
2018-03-28T03:22:18.603Z,40.9
2018-03-28T03:23:08.989Z,40.9
2018-03-28T03:23:59.256Z,40.9
2018-03-28T03:24:49.048Z,40.9
2018-03-28T03:25:39.361Z,41
2018-03-28T03:26:29.145Z,41.1
2018-03-28T03:27:18.935Z,41.1
2018-03-28T03:28:09.557Z,41.1
2018-03-28T03:28:59.336Z,41.1
2018-03-28T03:29:48.803Z,41.1
2018-03-28T03:30:39.200Z,41.2
2018-03-28T03:31:28.964Z,41.2
2018-03-28T03:32:19.709Z,41.2
2018-03-28T03:33:09.926Z,41.2
2018-03-28T03:33:59.218Z,41.2
2018-03-28T03:34:48.244Z,41.2
2018-03-28T03:35:39.845Z,41.2
2018-03-28T03:36:29.311Z,41.2
2018-03-28T03:37:19.061Z,41.2
2018-03-28T03:38:09.135Z,41.2
2018-03-28T03:38:59.008Z,41.2
2018-03-28T03:39:49.602Z,41.2
2018-03-28T03:40:39.107Z,41.2
2018-03-28T03:41:29.003Z,41.2
2018-03-28T03:42:19.225Z,41.2
2018-03-28T03:43:09.413Z,41.2
2018-03-28T03:43:59.144Z,41.2
2018-03-28T03:44:49.642Z,41.2
2018-03-28T03:45:40.224Z,41.2
2018-03-28T03:46:29.022Z,41.2
2018-03-28T03:47:19.795Z,41.2
2018-03-28T03:48:09.814Z,41.2
2018-03-28T03:48:59.767Z,41.2
2018-03-28T03:49:49.414Z,41.2
2018-03-28T03:50:39.530Z,41.2
2018-03-28T03:51:29.121Z,41.2
2018-03-28T03:52:20.329Z,41.2
2018-03-28T03:53:09.607Z,41.2
2018-03-28T03:54:00.224Z,41.2
2018-03-28T03:54:49.301Z,41.1
2018-03-28T03:55:39.527Z,41.1
2018-03-28T03:56:29.926Z,41.1
2018-03-28T03:57:20.469Z,41.1
2018-03-28T03:58:10.611Z,41.2
2018-03-28T03:59:00.472Z,41.2
2018-03-28T03:59:50.049Z,41.1
2018-03-28T04:00:40.293Z,41.2
2018-03-28T04:01:31.074Z,41.1
2018-03-28T04:02:20.370Z,41.1
2018-03-28T04:03:10.383Z,41.1
2018-03-28T04:04:01.391Z,41.1
2018-03-28T04:04:51.078Z,41.1
2018-03-28T04:05:39.743Z,41.1
2018-03-28T04:06:31.471Z,41.1
2018-03-28T04:07:21.203Z,41.1
2018-03-28T04:08:11.786Z,41.1
2018-03-28T04:09:00.790Z,41.1
2018-03-28T04:09:51.028Z,41.1
2018-03-28T04:10:40.810Z,41.1
2018-03-28T04:11:31.258Z,41.1
2018-03-28T04:12:22.087Z,41.1
2018-03-28T04:13:11.353Z,41.1
2018-03-28T04:14:01.426Z,41.1
2018-03-28T04:14:51.696Z,41.1
2018-03-28T04:15:41.443Z,41.1
2018-03-28T04:16:31.583Z,41.1
2018-03-28T04:17:22.681Z,41.1
2018-03-28T04:18:13.033Z,41.1
2018-03-28T04:19:02.804Z,41.1
2018-03-28T04:19:53.132Z,41.1
2018-03-28T04:20:42.946Z,41.1
2018-03-28T04:21:33.241Z,41.1
2018-03-28T04:22:22.496Z,41.1
2018-03-28T04:23:13.382Z,41.1
2018-03-28T04:24:02.141Z,41.1
2018-03-28T04:24:51.689Z,41.1
2018-03-28T04:25:40.659Z,41.1
2018-03-28T04:26:32.901Z,41.1
2018-03-28T04:27:23.146Z,41.1
2018-03-28T04:28:11.959Z,41.1
2018-03-28T04:29:03.271Z,41.1
2018-03-28T04:29:52.976Z,41.1
2018-03-28T04:30:43.672Z,41.1
2018-03-28T04:31:32.873Z,41.1
2018-03-28T04:32:21.806Z,41.1
2018-03-28T04:33:12.907Z,41.1
2018-03-28T04:34:02.803Z,41
2018-03-28T04:34:52.581Z,41
2018-03-28T04:35:42.354Z,41
2018-03-28T04:36:32.716Z,41
2018-03-28T04:37:22.810Z,41.1
2018-03-28T04:38:12.810Z,41
2018-03-28T04:39:02.188Z,41
2018-03-28T04:39:52.856Z,41
2018-03-28T04:40:42.592Z,41
2018-03-28T04:41:33.143Z,41
2018-03-28T04:42:22.916Z,41
2018-03-28T04:43:13.210Z,41
2018-03-28T04:44:03.227Z,41
2018-03-28T04:44:53.189Z,41
2018-03-28T04:45:44.030Z,40.9
2018-03-28T04:46:33.765Z,40.9
2018-03-28T04:47:23.837Z,40.9
2018-03-28T04:48:14.087Z,40.9
2018-03-28T04:49:03.280Z,40.9
2018-03-28T04:49:53.698Z,40.9
2018-03-28T04:50:42.662Z,40.9
2018-03-28T04:51:34.327Z,40.9
2018-03-28T04:52:24.377Z,40.9
2018-03-28T04:53:14.542Z,40.9
2018-03-28T04:54:04.019Z,40.9
2018-03-28T04:54:54.748Z,40.9
2018-03-28T04:55:45.222Z,40.9
2018-03-28T04:56:34.849Z,40.9
2018-03-28T04:57:24.535Z,40.9
2018-03-28T04:58:13.814Z,40.9
2018-03-28T04:59:04.146Z,40.9
2018-03-28T04:59:54.902Z,40.9
2018-03-28T05:00:45.247Z,40.9
2018-03-28T05:01:34.636Z,40.9
2018-03-28T05:02:24.974Z,40.9
2018-03-28T05:03:14.753Z,40.9
2018-03-28T05:04:04.701Z,40.9
2018-03-28T05:04:54.774Z,40.8
2018-03-28T05:05:44.992Z,40.8
2018-03-28T05:06:35.266Z,40.8
2018-03-28T05:07:24.812Z,40.8
2018-03-28T05:08:15.273Z,40.8
2018-03-28T05:09:04.866Z,40.8
2018-03-28T05:09:55.682Z,40.8
2018-03-28T05:10:45.122Z,40.8
2018-03-28T05:11:34.687Z,40.8
2018-03-28T05:12:25.356Z,40.8
2018-03-28T05:13:15.472Z,40.8
2018-03-28T05:14:05.629Z,40.8
2018-03-28T05:14:56.425Z,40.8
2018-03-28T05:15:46.600Z,40.8
2018-03-28T05:16:36.349Z,40.8
2018-03-28T05:17:25.023Z,40.8
2018-03-28T05:18:15.166Z,40.8
2018-03-28T05:19:05.451Z,40.8
2018-03-28T05:19:56.119Z,40.8
2018-03-28T05:20:46.245Z,40.8
2018-03-28T05:21:36.292Z,40.8
2018-03-28T05:22:26.810Z,40.8
2018-03-28T05:23:16.095Z,40.8
2018-03-28T05:24:07.292Z,40.8
2018-03-28T05:24:57.368Z,40.7
2018-03-28T05:25:47.418Z,40.7
2018-03-28T05:26:37.452Z,40.8
2018-03-28T05:27:27.880Z,40.7
2018-03-28T05:28:17.348Z,40.7
2018-03-28T05:29:07.917Z,40.7
2018-03-28T05:29:56.889Z,40.7
2018-03-28T05:30:47.763Z,40.7
2018-03-28T05:31:37.953Z,40.7
2018-03-28T05:32:27.891Z,40.7
2018-03-28T05:33:17.717Z,40.7
2018-03-28T05:34:08.011Z,40.7
2018-03-28T05:34:58.394Z,40.6
2018-03-28T05:35:47.839Z,40.6
2018-03-28T05:36:37.911Z,40.6
2018-03-28T05:37:28.221Z,40.6
2018-03-28T05:38:18.644Z,40.6
2018-03-28T05:39:08.058Z,40.6
2018-03-28T05:39:57.942Z,40.6
2018-03-28T05:40:48.176Z,40.6
2018-03-28T05:41:37.115Z,40.6
2018-03-28T05:42:27.125Z,40.6
2018-03-28T05:43:17.781Z,40.6
2018-03-28T05:44:07.667Z,40.6
2018-03-28T05:44:57.516Z,40.6
2018-03-28T05:45:48.470Z,40.6
2018-03-28T05:46:37.720Z,40.6
2018-03-28T05:47:27.292Z,40.6
2018-03-28T05:48:17.973Z,40.6
2018-03-28T05:49:07.999Z,40.6
2018-03-28T05:49:58.087Z,40.6
2018-03-28T05:50:48.060Z,40.6
2018-03-28T05:51:38.585Z,40.6
2018-03-28T05:52:28.712Z,40.6
2018-03-28T05:53:17.511Z,40.6
2018-03-28T05:54:08.989Z,40.6
2018-03-28T05:54:58.217Z,40.5
2018-03-28T05:55:49.271Z,40.5
2018-03-28T05:56:38.342Z,40.5
2018-03-28T05:57:27.972Z,40.5
2018-03-28T05:58:19.392Z,40.5
2018-03-28T05:59:08.812Z,40.5
2018-03-28T05:59:58.451Z,40.5
2018-03-28T06:00:48.351Z,40.5
2018-03-28T06:01:38.674Z,40.4
2018-03-28T06:02:29.236Z,40.5
2018-03-28T06:03:19.099Z,40.5
2018-03-28T06:04:08.451Z,40.4
2018-03-28T06:04:59.446Z,40.4
2018-03-28T06:05:50.262Z,40.4
2018-03-28T06:06:39.682Z,40.4
2018-03-28T06:07:31.174Z,40.4
2018-03-28T06:08:20.443Z,40.4
2018-03-28T06:09:10.192Z,40.4
2018-03-28T06:10:00.507Z,40.4
2018-03-28T06:10:50.814Z,40.4
2018-03-28T06:11:40.627Z,40.4
2018-03-28T06:12:30.359Z,40.4
2018-03-28T06:13:21.036Z,40.4
2018-03-28T06:14:10.511Z,40.4
2018-03-28T06:15:00.644Z,40.4
2018-03-28T06:15:50.361Z,40.4
2018-03-28T06:16:41.285Z,40.4
2018-03-28T06:17:31.289Z,40.4
2018-03-28T06:18:21.133Z,40.4
2018-03-28T06:19:11.131Z,40.4
2018-03-28T06:20:01.230Z,40.3
2018-03-28T06:20:51.273Z,40.3
2018-03-28T06:21:40.631Z,40.3
2018-03-28T06:22:31.071Z,40.3
2018-03-28T06:23:21.706Z,40.3
2018-03-28T06:24:12.559Z,40.3
2018-03-28T06:25:01.019Z,40.3
2018-03-28T06:25:51.306Z,40.3
2018-03-28T06:26:41.056Z,40.3
2018-03-28T06:27:31.675Z,40.3
2018-03-28T06:28:21.815Z,40.3
2018-03-28T06:29:11.805Z,40.3
2018-03-28T06:30:01.323Z,40.3
2018-03-28T06:30:52.224Z,40.3
2018-03-28T06:31:42.011Z,40.3
2018-03-28T06:32:31.810Z,40.3
2018-03-28T06:33:21.527Z,40.3
2018-03-28T06:34:11.630Z,40.3
2018-03-28T06:35:01.454Z,40.3
2018-03-28T06:35:50.470Z,40.3
2018-03-28T06:36:42.079Z,40.3
2018-03-28T06:37:31.462Z,40.2
2018-03-28T06:38:22.222Z,40.2
2018-03-28T06:39:11.101Z,40.2
2018-03-28T06:40:01.600Z,40.2
2018-03-28T06:40:52.082Z,40.2
2018-03-28T06:41:42.238Z,40.1
2018-03-28T06:42:32.318Z,40.1
2018-03-28T06:43:20.907Z,40.1
2018-03-28T06:44:12.711Z,40.1
2018-03-28T06:45:01.023Z,40.1
2018-03-28T06:45:52.544Z,40.1
2018-03-28T06:46:41.894Z,40.1
2018-03-28T06:47:32.437Z,40.1
2018-03-28T06:48:22.033Z,40.1
2018-03-28T06:49:12.474Z,40.1
2018-03-28T06:50:02.037Z,40.1
2018-03-28T06:50:52.899Z,40.1
2018-03-28T06:51:42.649Z,40.1
2018-03-28T06:52:32.939Z,40.1
2018-03-28T06:53:23.021Z,40.1
2018-03-28T06:54:11.705Z,40.1
2018-03-28T06:55:02.737Z,40.1
2018-03-28T06:55:52.752Z,40.1
2018-03-28T06:56:42.494Z,38.6
2018-03-28T06:57:33.539Z,24.8
2018-03-28T06:58:22.325Z,36.9
2018-03-28T06:59:12.718Z,46
2018-03-28T07:00:03.058Z,49.2
2018-03-28T07:00:53.349Z,50
2018-03-28T07:01:42.853Z,49.9
2018-03-28T07:02:33.140Z,49.6
2018-03-28T07:03:23.091Z,49.3
2018-03-28T07:04:13.583Z,48.9
2018-03-28T07:05:03.556Z,48.5
2018-03-28T07:05:53.253Z,48.2
2018-03-28T07:06:44.168Z,47.9
2018-03-28T07:07:33.399Z,47.6
2018-03-28T07:08:22.736Z,47.3
2018-03-28T07:09:13.668Z,47.1
2018-03-28T07:10:03.696Z,46.8
2018-03-28T07:10:53.286Z,46.6
2018-03-28T07:11:43.759Z,46.3
2018-03-28T07:12:33.320Z,46.1
2018-03-28T07:13:24.390Z,45.8
2018-03-28T07:14:12.948Z,45.6
2018-03-28T07:15:04.770Z,45.4
2018-03-28T07:15:53.562Z,44.9
2018-03-28T07:16:43.608Z,43.6
2018-03-28T07:17:34.352Z,52.4
2018-03-28T07:18:23.715Z,56.4
2018-03-28T07:19:14.078Z,55.6
2018-03-28T07:20:05.441Z,53.1
2018-03-28T07:20:53.710Z,52.1
2018-03-28T07:22:35.258Z,53.1
2018-03-28T07:23:24.075Z,53.9
2018-03-28T07:24:14.227Z,54.5
2018-03-28T07:25:04.624Z,54.7
2018-03-28T07:25:55.620Z,54.5
2018-03-28T07:26:44.809Z,54.1
2018-03-28T07:27:35.063Z,53.9
2018-03-28T07:28:24.862Z,54
2018-03-28T07:29:14.348Z,54.1
2018-03-28T07:30:05.265Z,54.1
2018-03-28T07:30:55.338Z,54.1
2018-03-28T07:31:45.450Z,54.1
2018-03-28T07:32:35.720Z,54.1
2018-03-28T07:33:24.887Z,54.1
2018-03-28T07:34:15.814Z,54.3
2018-03-28T07:35:05.952Z,54.4
2018-03-28T07:35:55.569Z,54.5
2018-03-28T07:36:46.186Z,54.6
2018-03-28T07:37:35.586Z,54.7
2018-03-28T07:38:25.326Z,54.8
2018-03-28T07:39:16.169Z,54.9
2018-03-28T07:40:06.151Z,55.1
2018-03-28T07:40:55.412Z,55.1
2018-03-28T07:41:45.681Z,55.3
2018-03-28T07:42:35.546Z,55.5
2018-03-28T07:43:26.308Z,55.7
2018-03-28T07:44:15.350Z,55.9
2018-03-28T07:45:06.426Z,56.1
2018-03-28T07:45:55.896Z,56.3
2018-03-28T07:46:45.561Z,56.4
2018-03-28T07:47:36.596Z,56.6
2018-03-28T07:48:26.645Z,56.6
2018-03-28T07:49:16.034Z,56.6
2018-03-28T07:50:06.293Z,56.8
2018-03-28T07:50:56.776Z,56.9
2018-03-28T07:51:45.909Z,57.1
2018-03-28T07:52:36.876Z,57.2
2018-03-28T07:53:27.409Z,57.4
2018-03-28T07:54:17.306Z,57.5
2018-03-28T07:55:06.668Z,57.6
2018-03-28T07:55:56.708Z,57.7
2018-03-28T07:56:47.823Z,57.7
2018-03-28T07:58:27.805Z,57.8
2018-03-28T07:59:17.233Z,57.9
2018-03-28T08:00:06.571Z,57.9
2018-03-28T08:00:57.087Z,57.8
2018-03-28T08:01:47.524Z,57.7
2018-03-28T08:02:37.958Z,57.5
2018-03-28T08:03:27.036Z,57.2
2018-03-28T08:04:17.408Z,56.9
2018-03-28T08:05:07.355Z,56.4
2018-03-28T08:05:57.825Z,55.9
2018-03-28T08:06:48.300Z,55.5
2018-03-28T08:07:38.843Z,55.1
2018-03-28T08:08:27.597Z,54.8
2018-03-28T08:09:17.837Z,54.5
2018-03-28T08:10:07.928Z,54.3
2018-03-28T08:10:57.800Z,54.2
2018-03-28T08:11:47.980Z,54.1
2018-03-28T08:12:38.039Z,53.9
2018-03-28T08:13:28.145Z,53.9
2018-03-28T08:14:19.252Z,53.9
2018-03-28T08:15:07.098Z,53.9
2018-03-28T08:15:58.883Z,53.9
2018-03-28T08:16:49.712Z,53.9
2018-03-28T08:17:39.459Z,53.8
2018-03-28T08:18:29.581Z,53.7
2018-03-28T08:19:19.880Z,53.6
2018-03-28T08:20:09.657Z,53.5
2018-03-28T08:20:59.557Z,53.4
2018-03-28T08:21:49.235Z,53.4
2018-03-28T08:22:38.847Z,53.4
2018-03-28T08:23:29.182Z,53.4
2018-03-28T08:24:19.113Z,53.6
2018-03-28T08:25:09.765Z,53.9
2018-03-28T08:25:58.666Z,54
2018-03-28T08:26:49.501Z,54.2
2018-03-28T08:27:39.261Z,54.3
2018-03-28T08:28:29.729Z,54.5
2018-03-28T08:29:19.311Z,54.6
2018-03-28T08:30:09.804Z,54.6
2018-03-28T08:30:58.685Z,54.3
2018-03-28T08:31:50.211Z,54
2018-03-28T08:32:40.814Z,53.8
2018-03-28T08:33:30.330Z,53.9
2018-03-28T08:34:20.426Z,54
2018-03-28T08:35:10.743Z,54.3
2018-03-28T08:36:00.784Z,54.5
2018-03-28T08:36:50.850Z,54.7
2018-03-28T08:37:41.210Z,54.9
2018-03-28T08:38:30.715Z,55.1
2018-03-28T08:39:21.697Z,55.4
2018-03-28T08:40:11.380Z,55.4
2018-03-28T08:41:00.968Z,55.4
2018-03-28T08:41:50.648Z,55.4
2018-03-28T08:42:41.321Z,55.4
2018-03-28T08:43:31.610Z,55.6
2018-03-28T08:44:21.640Z,55.4
2018-03-28T08:45:11.458Z,55.1
2018-03-28T08:46:01.518Z,55
2018-03-28T08:46:51.616Z,55.4
2018-03-28T08:47:41.615Z,56
2018-03-28T08:48:30.941Z,56.6
2018-03-28T08:49:21.285Z,56.8
2018-03-28T08:50:11.562Z,56.7
2018-03-28T08:51:00.884Z,56.3
2018-03-28T08:51:50.704Z,55.9
2018-03-28T08:52:40.952Z,55.7
2018-03-28T08:53:31.545Z,55.6
2018-03-28T08:54:21.310Z,55.8
2018-03-28T08:55:11.500Z,56.1
2018-03-28T08:56:01.746Z,56.4
2018-03-28T08:56:51.034Z,56.7
2018-03-28T08:57:41.507Z,57.1
2018-03-28T08:58:31.765Z,57.4
2018-03-28T09:00:11.142Z,58
2018-03-28T09:01:00.856Z,58.4
2018-03-28T09:01:52.997Z,58.8
2018-03-28T09:02:41.687Z,59.3
2018-03-28T09:03:31.452Z,59.7
2018-03-28T09:04:21.810Z,60
2018-03-28T09:05:12.454Z,60.4
2018-03-28T09:06:01.195Z,60.7
2018-03-28T09:06:51.672Z,61
2018-03-28T09:07:42.035Z,61.2
2018-03-28T09:08:31.822Z,61.3
2018-03-28T09:09:22.386Z,61.4
2018-03-28T09:10:11.147Z,61.2
2018-03-28T09:11:02.962Z,60.8
2018-03-28T09:11:52.566Z,60.4
2018-03-28T09:12:42.898Z,60
2018-03-28T09:13:31.454Z,59.6
2018-03-28T09:14:21.529Z,59.4
2018-03-28T09:15:13.374Z,59.1
2018-03-28T09:16:03.116Z,58.9
2018-03-28T09:16:52.641Z,58.8
2018-03-28T09:18:32.901Z,58.4
2018-03-28T09:19:23.728Z,58.2
2018-03-28T09:20:13.226Z,57.9
2018-03-28T09:21:02.616Z,57.7
2018-03-28T09:21:52.887Z,57.5
2018-03-28T09:22:42.559Z,57.4
2018-03-28T09:23:33.404Z,57.4
2018-03-28T09:24:22.842Z,57.3
2018-03-28T09:25:13.934Z,57.3
2018-03-28T09:26:03.930Z,57.3
2018-03-28T09:26:53.186Z,57.4
2018-03-28T09:27:43.782Z,57.6
2018-03-28T09:28:34.675Z,57.9
2018-03-28T09:29:23.180Z,58.3
2018-03-28T09:31:03.736Z,58.6
2018-03-28T09:31:53.811Z,58.6
2018-03-28T09:32:43.303Z,58.8
2018-03-28T09:33:33.817Z,59.1
2018-03-28T09:34:23.959Z,59.6
2018-03-28T09:35:14.436Z,60
2018-03-28T09:36:04.068Z,60.3
2018-03-28T09:36:53.873Z,60.3
2018-03-28T09:37:43.491Z,60.1
2018-03-28T09:38:33.875Z,60
2018-03-28T09:39:24.289Z,59.9
2018-03-28T09:40:13.918Z,59.8
2018-03-28T09:41:04.774Z,59.7
2018-03-28T09:41:54.693Z,59.4
2018-03-28T09:42:45.077Z,58.8
2018-03-28T09:43:34.577Z,58.4
2018-03-28T09:44:24.298Z,58.3
2018-03-28T09:45:14.652Z,58.7
2018-03-28T09:46:04.722Z,59.2
2018-03-28T09:46:54.410Z,59.5
2018-03-28T09:47:45.247Z,59.4
2018-03-28T09:48:35.273Z,58.9
2018-03-28T09:49:24.270Z,58.4
2018-03-28T09:50:15.418Z,58.3
2018-03-28T09:51:04.389Z,58.4
2018-03-28T09:51:55.467Z,58.4
2018-03-28T09:52:45.837Z,58.2
2018-03-28T09:54:25.583Z,57.3
2018-03-28T09:55:15.701Z,57.1
2018-03-28T09:56:05.753Z,57.4
2018-03-28T09:56:54.930Z,57.8
2018-03-28T09:57:45.582Z,58.3
2018-03-28T09:59:26.656Z,58.7
2018-03-28T10:00:16.029Z,58.6
2018-03-28T10:01:06.004Z,58.4
2018-03-28T10:01:56.424Z,58.4
2018-03-28T10:02:45.939Z,58.5
2018-03-28T10:03:36.383Z,58.7
2018-03-28T10:04:24.402Z,59
2018-03-28T10:05:16.319Z,59.3
2018-03-28T10:06:06.178Z,59.6
2018-03-28T10:06:56.106Z,59.7
2018-03-28T10:07:46.326Z,59.8
2018-03-28T10:08:36.855Z,59.8
2018-03-28T10:09:26.903Z,59.9
2018-03-28T10:10:16.194Z,60
2018-03-28T10:11:06.083Z,60.1
2018-03-28T10:11:56.138Z,60.4
2018-03-28T10:12:46.972Z,60.7
2018-03-28T10:13:36.536Z,61
2018-03-28T10:14:26.779Z,61.1
2018-03-28T10:15:17.034Z,61.2
2018-03-28T10:16:06.803Z,61.3
2018-03-28T10:16:56.876Z,61.4
2018-03-28T10:17:47.511Z,61.8
2018-03-28T10:18:36.985Z,62.4
2018-03-28T10:19:27.757Z,63.1
2018-03-28T10:20:17.313Z,63.6
2018-03-28T10:21:07.657Z,63.8
2018-03-28T10:21:56.867Z,63.9
2018-03-28T10:22:47.784Z,64.3
2018-03-28T10:23:37.951Z,64.5
2018-03-28T10:24:27.610Z,64.8
2018-03-28T10:25:17.280Z,64.8
2018-03-28T10:26:08.066Z,64.9
2018-03-28T10:26:57.120Z,65
2018-03-28T10:27:48.258Z,65.1
2018-03-28T10:28:37.915Z,65.3
2018-03-28T10:29:27.809Z,65.3
2018-03-28T10:30:17.622Z,65.3
2018-03-28T10:31:07.542Z,65.2
2018-03-28T10:31:58.299Z,65.1
2018-03-28T10:32:48.508Z,64.9
2018-03-28T10:33:38.679Z,64.9
2018-03-28T10:34:28.342Z,64.9
2018-03-28T10:35:17.734Z,64.9
2018-03-28T10:36:07.323Z,64.9
2018-03-28T10:36:58.485Z,64.7
2018-03-28T10:37:49.089Z,64.6
2018-03-28T10:38:39.712Z,64.4
2018-03-28T10:39:29.508Z,64.4
2018-03-28T10:40:19.848Z,64.5
2018-03-28T10:41:09.877Z,64.5
2018-03-28T10:41:59.382Z,64.4
2018-03-28T10:42:49.694Z,64.3
2018-03-28T10:43:39.777Z,64
2018-03-28T10:44:29.887Z,63.8
2018-03-28T10:45:20.154Z,63.8
2018-03-28T10:46:09.227Z,64.1
2018-03-28T10:46:59.381Z,64.6
2018-03-28T10:47:48.944Z,65.4
2018-03-28T10:48:39.759Z,66.1
2018-03-28T10:49:30.066Z,66.7
2018-03-28T10:50:19.219Z,67.1
2018-03-28T10:51:09.798Z,67.5
2018-03-28T10:51:59.921Z,67.8
2018-03-28T10:52:49.610Z,68.1
2018-03-28T10:53:40.155Z,68.4
2018-03-28T10:54:29.714Z,68.1
2018-03-28T10:55:19.694Z,66.8
2018-03-28T10:56:09.694Z,65.3
2018-03-28T10:56:59.706Z,64
2018-03-28T10:57:50.169Z,63.4
2018-03-28T10:58:41.465Z,62.9
2018-03-28T10:59:31.585Z,62.7
2018-03-28T11:00:21.010Z,62.3
2018-03-28T11:01:11.630Z,61.9
2018-03-28T11:02:01.387Z,61.4
2018-03-28T11:02:51.472Z,61
2018-03-28T11:03:40.771Z,60.6
2018-03-28T11:04:30.209Z,60.3
2018-03-28T11:05:20.813Z,60
2018-03-28T11:06:11.431Z,59.8
2018-03-28T11:07:01.326Z,59.4
2018-03-28T11:07:51.240Z,59.1
2018-03-28T11:08:41.164Z,58.8
2018-03-28T11:10:20.178Z,58.3
2018-03-28T11:11:10.820Z,58.1
2018-03-28T11:11:59.314Z,57.8
2018-03-28T11:12:50.367Z,57.7
2018-03-28T11:13:41.779Z,57.5
2018-03-28T11:14:32.592Z,57.4
2018-03-28T11:15:22.334Z,57.3
2018-03-28T11:16:12.785Z,57.1